Timeline UpdatesTrip UpdatesNews PostsPvt PostsTravel TipsAdmin PostsConv PostsFollowed PostsChat RequestsBlog PostsPNR Posts

Disclaimer
Search
 
 
Tue Sep 23, 2014 03:49:28 ISTHomeTrainsΣChainsAtlasPNRForumGalleryNewsFAQTripsMembersLoginFeedback
No Recent News for this Train
Other Trains in the News **new
Latest...
.
Sat Jan 26, 2013 (03:08PM)
⇐ Return Journey: Train# 59440

59439/Mumbai Central-Ahmedabad Passenger

Time-Table HAS CHANGED.
Sep 02 (12:22AM)
Change Departure Station:
Change Arrival Station:
Post a Train Travel TipPost a Train Travel Tip **new
Post a Comment/Question/Picture/VideoPost a Comment/Question/Picture/Video
Pantry/Catering
✕ NO Pantry Car
✕ NO Catering
RSA - Rake Sharing
59439 and 59442 share rakes.
Rake/Coach Composition
LOCO-SLR-GEN-GEN-GEN-S3-S2-S1-LD-GEN-GEN-GEN-GEN-GEN-GEN-GEN-SLR
Loco
BL WCAM-1/BRC WAG-5A
News    PNR    Forum    Time-Table    Availability    Fare Chart    Map    Arr/Dep History    Trips    Gallery    ΣChains    X/O    Timeline    
Travel Time: 10h 35m    46 halts    Distance: 298 km    Avg Speed: 28 km/hr
Type: Passenger
Zone: WR/Western
Departs @ 18:00 (Avg 4m late)
Platform# 2
SMTWTFS
Valsad/BL 
Arrives @ 04:35 +1 night (Avg 5m late)
Platform# 4
SMTWTFS
Ahmedabad Junction/ADI 

46 halts. 60 intermediate Stations between Valsad and Ahmedabad Junction

Show ALL intermediate Stations  Show Old Time-Table

#CodeStation NameX/OArrivesAvgDepartsAvgHaltPFDay#KmSpeedElevZoneAddress
1BCTMumbai Central (9)  -12:15+041-194.4363mWRMumbai 400008, Maharashtra
2DDRMumbai Dadar Western (6)X  12:28 12:25+312:30+62 5m51-188.5306mWRMumbai, Maharashtra
3ADHMumbai Andheri (9)  12:52+412:54+72m81-177.34412mWRMumbai, Maharashtra
4BVIMumbai Borivali (8)X  13:18 13:11+713:20+112 9m61-164.73519mWRMumbai - 400092, Maharashtra
5BSRVasai Road (7)  13:50+313:52+32m41-147.3467mWRVasai 401202, Maharashtra
6VRVirar (8)X  14:03+314:05+42m31-138.9436mWRDist. Palghar, Maharashtra
7VTNVaitarna (2)  14:16 14:17+414:18+32 1m11-130.4583mWRDist. Palghar, Maharashtra
8SAHSaphale (2)X  14:25 14:26+614:27+52 1m11-122.6648mWRDist. Palghar, Maharashtra
9KLVKelve Road (3)  14:32 14:33+714:34+82 1m21-116.27210mWRDist. Palghar, Maharashtra
10PLGPalghar (3)X  14:41+814:43+92m11-107.75619mWRPalghar, Maharashtra
11BORBoisar (3)XO  14:55+1314:57+202m11-96.51817mWRBoisar Tel.no-02525-266626, Maharashtra
12VGNVangaon (3)XO  15:28 15:29+215:30+62 1m--1-87.15311mWRDist. Palghar, Maharashtra
13DRDDahanu Road (5)X  15:44+415:46+62m11-74.86112mWRDahanu, Maharashtra
14GVDGholvad (4)  15:56 15:57+515:58+62 1m--1-63.66114mWRGholvad, Maharashtra
15UBRUmbargam Road (3)XO  16:07+716:09+92m11-54.52730mWRUmbergaon, Gujarat
16SJNSanjan (3)X  16:20 16:21+616:22+92 1m--1-49.15822mWRSanjan, Gujarat
17BLDBhilad (3)X  16:33 16:34+816:35+122 1m--1-37.54833mWRBhilad, Gujarat
18KEBKarambeli (2)O  16:40 16:41+016:42+02 1m--1-32.72429mWRNational Highway 8, Gujarat
19VAPIVapi (3)X  16:58+517:00+62m11-26.25027mWRVapi, Gujarat
20BAGDBagwada (2)O  17:08-17:09-1m--1-19.53522mWRNH8, Gujarat
21UVDUdvada (3)X  17:13 17:14+917:15+92 1m--1-16.76018mWRUdvada, Gujarat
22PADPardi (3)X  17:20 17:21+1117:22+112 1m--1-10.74819mWRValsad, Gujarat
23ATULAtul (3)  17:26 17:27+1217:28+112 1m--1-6.72922mWRValsad, Gujarat
24BLValsad (3)»XO  17:42+518:00+418m210.05915mWRValsad, Gujarat
25DGIDungri (3)  18:08 18:09+918:10+102 1m118.95120mWRNH 8, Gujarat
26JRSJoravasan (2)  18:15 18:16-18:17-2 1m1114.07915mWRJoravasan, Gujarat
27BIMBilimora Junction (4)XO  18:23 18:20+1018:25+192 5m--117.91811mWRBilimora, Gujarat
28AMLAmalsad (3)  18:44+1318:46+152m--123.53812mWRAmalsad, Gujarat
29ACLAncheli (2)O  18:51 18:52-18:53-2 1m--127.33420mWRNavsari, Gujarat
30VDHVedchha (3)XO  18:59+1419:01+192m--130.72313mWRNavsari, Gujarat
31NVSNavsari (3)X  19:23+919:25+102m3139.15114mWRNavsari, Gujarat
32MRLMaroli (3)XO  19:35+1219:37+142m--147.52515mWRMaroli, Gujarat
33SCHSachin (3)X  19:52 19:53+1019:54+102 1m1154.24311mWRKansad Road Sachin, Gujarat
34BHETBhestan (2)  20:01 20:02+1120:03+132 1m1159.92613mWRSurat, Gujarat
35UDNUdhna Junction (3)XO  20:14+1220:16+212m1164.7716mWRUdhna 394210, Gujarat
36STSurat (4)XO  20:49+321:09+220m2168.73919mWRSurat 395001, Gujarat
37URNUtran (3)  21:15+1421:17+132m--172.66415mWRSurat, Gujarat
38KSEKosad (2)  21:20+1721:22+202m--175.83717mWRSurat, Gujarat
39GTXGothangam (2)XO  21:28+2021:30 21:29+202 1m--179.41819mWRAmroli Sayan Rd, Gujarat
40SYNSayan (3)O  21:39+1721:41 21:40+202 1m--182.45021mWRSayan Satellite town, Gujarat
41KIMKim (2)  21:52+2321:54 21:53+222 1m--192.35218mWRNH 8, Gujarat
42KSBKosamba Junction (3)X  22:02+1922:04 22:03+192 1m--1100.13730mWRKosamba, Gujarat
43HATHathuran (2)O  22:08 22:10-22:10 22:11-2 1m--1104.53932mWRKosamba, Gujarat
44PAOPanoli (3)X  22:15 22:17+2322:17 22:18+282 1m--1108.34429mWRPanoli, Gujarat
45AKVAnkleshwar Junction (4)  22:34 22:32+1822:36 22:33+182 1m21118.64719mWRAnkleshwar, Gujarat
46BHBharuch Junction (5)  22:50 22:45+1522:52 22:47+162m31128.05619mWRBharuch, Gujarat
47NIUNabipur (3)X  23:03 23:00+2623:05 23:02+272m--1140.05124mWRNabipur, Gujarat
48VREVarediya (4)X  23:12 23:10+2823:14 23:11+292 1m--1146.85721mWRNH 8, Gujarat
49PLJPalej (4)O  23:20 23:18+3023:22 23:19+322 1m--1153.43829mWRPalej, Gujarat
50MYGMiyagam Karjan (2)X  23:43+2523:45+242m21168.76329mWRKarjan, Gujarat
51ITAItola (4)X  23:56+2823:58+272m--1180.33027mWRNational Highway 8 Vadodara, Gujarat
52BRCVadodara Junction (7)X  00:40 00:35+1500:50 00:45+1610m--2198.53136mWRVadodara 390005, Gujarat
53BJWBajva (3)X  01:04 00:59+3301:06 01:01+352m--2205.82338mWRVadodara, Gujarat
54RNORanoli (2)  01:16 01:11+3501:18 01:13+372m--2209.58339mWRVadodara District, Gujarat
55NDRNandesari (2)  01:21 01:16-01:23 01:18-2m--2213.76042mWRNandesari, Gujarat
56VDAVasad Junction (3)XO  01:28 01:23+3701:30 01:25+372m--2218.72540mWRVasad, Gujarat
57ADDAdas Road (4)X  01:36+3601:38 01:37+352 1m--2223.33542mWRNational Highway 8, Gujarat
58VXDVadod (3)  01:44+3501:46 01:45+352 1m--2227.43744mWRAnand District, Gujarat
59ANNDAnand Junction (6)X  02:03 01:56+2102:08 02:01+215m--2234.33444mWRAnand, Gujarat
60KBRVKanjari Boriyavi Junction (4)X  02:14+3102:16 02:15+302 1m--2241.74139mWRKanjari, Gujarat
61UTDUtarsanda (4)O  02:23+3002:25 02:24+302 1m--2247.22240mWRUttarsanda, Gujarat
62NDNadiad Junction (4)XO  02:35 02:39+2002:43 02:44+198 5m--2252.74037mWRNadiad, Gujarat
63GTEGothaj (2)X  02:52 02:58+2402:54 02:59+252 1m--2261.95532mWRState Highway 3, Gujarat
64MHDMahemdavad Kheda Road (4)X  03:12 03:08+1803:14 03:09+202 1m--2270.35037mWRMahemdavad, Gujarat
65NEPNenpur (2)X  03:19 03:14-03:21 03:16-2m--2274.42935mWRState Highway 3, Gujarat
66KANJKanij (3)  03:26 03:22+1803:28 03:23+192 1m--2277.32239mWRBareja-Barejadi Rd, Gujarat
67BJDBarejadi Nandej (3)X  03:36 03:35+1803:38 03:36+202 1m--2281.62242mWRBareja-Barejadi Rd, Gujarat
68GERGeratpur (2)X  03:52 03:45+1403:54 03:46+152 1m--2285.07944mWRAhmadabad, Gujarat
69VTAVatva (4)X  03:58 03:50+2504:00 03:52+242m--2290.34849mWRDist. Ahmedabad 382445, Gujarat
70MANManinagar (2)O  04:06 03:58+004:08 04:00+02m12295.1550mWRAhmadabad, Gujarat
71ADIAhmedabad Junction (12)•  04:25 04:35+5-42298.3-51mWRAhmedabad, Gujarat
Scroll to Top
Scroll to Bottom